sensor_id;sensor_type;location;lat;lon;timestamp;pressure;altitude;pressure_sealevel;temperature;humidity
9059;BME280;4564;42.034;25.834;2023-02-17T00:01:22;101285.22;;;1.99;93.95
9059;BME280;4564;42.034;25.834;2023-02-17T00:03:50;101280.50;;;1.90;94.51
9059;BME280;4564;42.034;25.834;2023-02-17T00:06:17;101284.59;;;1.83;93.56
9059;BME280;4564;42.034;25.834;2023-02-17T00:08:44;101279.00;;;1.74;94.48
9059;BME280;4564;42.034;25.834;2023-02-17T00:11:11;101284.13;;;1.64;94.46
9059;BME280;4564;42.034;25.834;2023-02-17T00:13:37;101286.47;;;1.68;93.62
9059;BME280;4564;42.034;25.834;2023-02-17T00:16:07;101276.41;;;1.47;91.36
9059;BME280;4564;42.034;25.834;2023-02-17T00:18:35;101271.69;;;1.38;92.06
9059;BME280;4564;42.034;25.834;2023-02-17T00:21:12;101282.13;;;1.15;91.14
9059;BME280;4564;42.034;25.834;2023-02-17T00:23:39;101274.31;;;1.12;92.47
9059;BME280;4564;42.034;25.834;2023-02-17T00:26:05;101279.00;;;1.09;92.95
9059;BME280;4564;42.034;25.834;2023-02-17T00:28:32;101279.53;;;1.01;93.43
9059;BME280;4564;42.034;25.834;2023-02-17T00:30:59;101274.50;;;1.09;93.57
9059;BME280;4564;42.034;25.834;2023-02-17T00:33:30;101262.69;;;1.13;94.06
9059;BME280;4564;42.034;25.834;2023-02-17T00:35:58;101277.84;;;1.13;94.78
9059;BME280;4564;42.034;25.834;2023-02-17T00:38:24;101273.56;;;1.10;95.81
9059;BME280;4564;42.034;25.834;2023-02-17T00:40:51;101264.19;;;1.17;95.92
9059;BME280;4564;42.034;25.834;2023-02-17T00:43:18;101268.22;;;1.10;96.20
9059;BME280;4564;42.034;25.834;2023-02-17T00:45:44;101266.50;;;1.09;96.24
9059;BME280;4564;42.034;25.834;2023-02-17T00:48:11;101270.34;;;1.05;96.93
9059;BME280;4564;42.034;25.834;2023-02-17T00:50:37;101266.47;;;0.97;95.99
9059;BME280;4564;42.034;25.834;2023-02-17T00:53:05;101253.41;;;0.92;97.42
9059;BME280;4564;42.034;25.834;2023-02-17T00:55:32;101255.25;;;0.92;98.13
9059;BME280;4564;42.034;25.834;2023-02-17T00:57:58;101254.53;;;1.02;98.30
9059;BME280;4564;42.034;25.834;2023-02-17T01:00:25;101251.94;;;1.01;97.19
9059;BME280;4564;42.034;25.834;2023-02-17T01:02:52;101235.28;;;0.97;96.52
9059;BME280;4564;42.034;25.834;2023-02-17T01:05:18;101227.31;;;0.83;96.77
9059;BME280;4564;42.034;25.834;2023-02-17T01:07:45;101236.19;;;0.83;97.89
9059;BME280;4564;42.034;25.834;2023-02-17T01:10:13;101223.91;;;0.81;98.13
9059;BME280;4564;42.034;25.834;2023-02-17T01:12:39;101217.78;;;0.79;98.41
9059;BME280;4564;42.034;25.834;2023-02-17T01:15:06;101211.72;;;0.90;97.29
9059;BME280;4564;42.034;25.834;2023-02-17T01:17:33;101213.75;;;0.86;97.77
9059;BME280;4564;42.034;25.834;2023-02-17T01:20:00;101209.81;;;0.92;96.73
9059;BME280;4564;42.034;25.834;2023-02-17T01:22:26;101205.53;;;0.89;97.39
9059;BME280;4564;42.034;25.834;2023-02-17T01:24:53;101210.56;;;0.94;97.53
9059;BME280;4564;42.034;25.834;2023-02-17T01:27:21;101199.56;;;0.98;96.79
9059;BME280;4564;42.034;25.834;2023-02-17T01:29:47;101192.06;;;0.91;97.93
9059;BME280;4564;42.034;25.834;2023-02-17T01:32:14;101191.31;;;0.89;97.84
9059;BME280;4564;42.034;25.834;2023-02-17T01:34:41;101185.91;;;0.76;97.90
9059;BME280;4564;42.034;25.834;2023-02-17T01:37:07;101189.75;;;0.72;98.80
9059;BME280;4564;42.034;25.834;2023-02-17T01:39:34;101183.88;;;0.67;98.04
9059;BME280;4564;42.034;25.834;2023-02-17T01:42:00;101191.88;;;0.67;98.48
9059;BME280;4564;42.034;25.834;2023-02-17T01:44:31;101205.66;;;0.61;98.75
9059;BME280;4564;42.034;25.834;2023-02-17T01:46:57;101194.41;;;0.56;97.10
9059;BME280;4564;42.034;25.834;2023-02-17T01:49:26;101191.03;;;0.39;96.28
9059;BME280;4564;42.034;25.834;2023-02-17T01:51:56;101187.09;;;0.32;96.31
9059;BME280;4564;42.034;25.834;2023-02-17T01:54:26;101181.94;;;0.29;95.19
9059;BME280;4564;42.034;25.834;2023-02-17T01:56:53;101188.75;;;0.33;94.99
9059;BME280;4564;42.034;25.834;2023-02-17T01:59:21;101186.41;;;0.29;94.63
9059;BME280;4564;42.034;25.834;2023-02-17T02:01:50;101181.41;;;0.10;93.49
9059;BME280;4564;42.034;25.834;2023-02-17T02:04:18;101183.41;;;0.07;93.42
9059;BME280;4564;42.034;25.834;2023-02-17T02:06:46;101178.44;;;0.15;92.48
9059;BME280;4564;42.034;25.834;2023-02-17T02:09:14;101175.59;;;0.04;92.90
9059;BME280;4564;42.034;25.834;2023-02-17T02:11:42;101174.19;;;-0.02;93.50
9059;BME280;4564;42.034;25.834;2023-02-17T02:14:09;101169.75;;;0.11;93.86
9059;BME280;4564;42.034;25.834;2023-02-17T02:16:38;101172.75;;;0.33;94.04
9059;BME280;4564;42.034;25.834;2023-02-17T02:19:13;101162.47;;;0.27;93.38
9059;BME280;4564;42.034;25.834;2023-02-17T02:21:52;101164.34;;;0.39;93.16
9059;BME280;4564;42.034;25.834;2023-02-17T02:24:27;101160.47;;;0.31;91.91
9059;BME280;4564;42.034;25.834;2023-02-17T02:29:51;101157.41;;;-0.04;91.03
9059;BME280;4564;42.034;25.834;2023-02-17T02:35:08;101159.53;;;-0.09;92.30
9059;BME280;4564;42.034;25.834;2023-02-17T02:37:38;101159.19;;;-0.17;93.16
9059;BME280;4564;42.034;25.834;2023-02-17T02:40:07;101163.91;;;-0.08;93.45
9059;BME280;4564;42.034;25.834;2023-02-17T02:42:34;101163.69;;;-0.05;94.03
9059;BME280;4564;42.034;25.834;2023-02-17T02:45:01;101166.97;;;0.00;93.95
9059;BME280;4564;42.034;25.834;2023-02-17T02:47:41;101162.38;;;0.02;93.12
9059;BME280;4564;42.034;25.834;2023-02-17T02:50:10;101165.97;;;0.15;93.88
9059;BME280;4564;42.034;25.834;2023-02-17T02:52:38;101171.09;;;0.18;93.71
9059;BME280;4564;42.034;25.834;2023-02-17T02:55:09;101171.94;;;0.19;94.15
9059;BME280;4564;42.034;25.834;2023-02-17T02:57:41;101163.63;;;0.23;92.84
9059;BME280;4564;42.034;25.834;2023-02-17T03:00:14;101162.19;;;0.05;93.07
9059;BME280;4564;42.034;25.834;2023-02-17T03:02:45;101169.66;;;0.13;93.75
9059;BME280;4564;42.034;25.834;2023-02-17T03:05:20;101167.47;;;0.19;94.41
9059;BME280;4564;42.034;25.834;2023-02-17T03:07:52;101172.81;;;0.19;94.88
9059;BME280;4564;42.034;25.834;2023-02-17T03:10:20;101172.81;;;0.19;94.41
9059;BME280;4564;42.034;25.834;2023-02-17T03:12:46;101172.81;;;0.19;94.94
9059;BME280;4564;42.034;25.834;2023-02-17T03:15:14;101170.44;;;0.15;94.77
9059;BME280;4564;42.034;25.834;2023-02-17T03:17:42;101173.69;;;0.06;94.47
9059;BME280;4564;42.034;25.834;2023-02-17T03:20:09;101165.00;;;0.16;95.08
9059;BME280;4564;42.034;25.834;2023-02-17T03:22:38;101170.91;;;0.07;94.24
9059;BME280;4564;42.034;25.834;2023-02-17T03:25:06;101163.69;;;-0.05;94.97
9059;BME280;4564;42.034;25.834;2023-02-17T03:27:32;101171.56;;;-0.16;92.97
9059;BME280;4564;42.034;25.834;2023-02-17T03:29:59;101172.13;;;-0.25;92.72
9059;BME280;4564;42.034;25.834;2023-02-17T03:32:26;101168.16;;;-0.32;92.99
9059;BME280;4564;42.034;25.834;2023-02-17T03:34:52;101162.22;;;-0.37;93.80
9059;BME280;4564;42.034;25.834;2023-02-17T03:37:19;101161.09;;;-0.33;94.83
9059;BME280;4564;42.034;25.834;2023-02-17T03:39:47;101162.59;;;-0.29;94.71
9059;BME280;4564;42.034;25.834;2023-02-17T03:42:14;101157.06;;;-0.12;94.85
9059;BME280;4564;42.034;25.834;2023-02-17T03:44:40;101154.56;;;-0.01;95.05
9059;BME280;4564;42.034;25.834;2023-02-17T03:47:07;101150.75;;;0.03;95.28
9059;BME280;4564;42.034;25.834;2023-02-17T03:49:33;101148.84;;;0.05;95.15
9059;BME280;4564;42.034;25.834;2023-02-17T03:52:00;101144.63;;;0.01;95.05
9059;BME280;4564;42.034;25.834;2023-02-17T03:54:26;101151.09;;;0.11;95.16
9059;BME280;4564;42.034;25.834;2023-02-17T03:56:54;101142.91;;;0.14;94.19
9059;BME280;4564;42.034;25.834;2023-02-17T03:59:21;101142.75;;;0.03;95.41
9059;BME280;4564;42.034;25.834;2023-02-17T04:01:48;101134.97;;;0.13;96.12
9059;BME280;4564;42.034;25.834;2023-02-17T04:04:14;101143.44;;;0.19;96.04
9059;BME280;4564;42.034;25.834;2023-02-17T04:06:41;101141.34;;;0.24;96.51
9059;BME280;4564;42.034;25.834;2023-02-17T04:09:07;101140.78;;;0.19;95.63
9059;BME280;4564;42.034;25.834;2023-02-17T04:11:34;101147.38;;;0.14;95.67
9059;BME280;4564;42.034;25.834;2023-02-17T04:14:02;101147.84;;;0.20;97.24
9059;BME280;4564;42.034;25.834;2023-02-17T04:16:29;101140.28;;;0.27;97.20
9059;BME280;4564;42.034;25.834;2023-02-17T04:18:55;101141.88;;;0.29;98.52
9059;BME280;4564;42.034;25.834;2023-02-17T04:21:22;101147.03;;;0.32;97.98
9059;BME280;4564;42.034;25.834;2023-02-17T04:23:49;101141.78;;;0.31;98.88
9059;BME280;4564;42.034;25.834;2023-02-17T04:26:15;101157.81;;;0.31;98.95
9059;BME280;4564;42.034;25.834;2023-02-17T04:28:42;101153.22;;;0.33;98.77
9059;BME280;4564;42.034;25.834;2023-02-17T04:31:10;101160.66;;;0.28;99.52
9059;BME280;4564;42.034;25.834;2023-02-17T04:33:36;101150.19;;;0.25;100.00
9059;BME280;4564;42.034;25.834;2023-02-17T04:36:03;101150.97;;;0.27;100.00
9059;BME280;4564;42.034;25.834;2023-02-17T04:38:30;101149.91;;;0.29;100.00
9059;BME280;4564;42.034;25.834;2023-02-17T04:40:58;101143.00;;;0.39;100.00
9059;BME280;4564;42.034;25.834;2023-02-17T04:43:26;101153.88;;;0.36;100.00
9059;BME280;4564;42.034;25.834;2023-02-17T04:45:52;101151.53;;;0.32;100.00
9059;BME280;4564;42.034;25.834;2023-02-17T04:48:21;101142.91;;;0.41;100.00
9059;BME280;4564;42.034;25.834;2023-02-17T04:50:48;101154.34;;;0.43;100.00
9059;BME280;4564;42.034;25.834;2023-02-17T04:53:14;101155.38;;;0.40;100.00
9059;BME280;4564;42.034;25.834;2023-02-17T04:55:41;101155.06;;;0.32;100.00
9059;BME280;4564;42.034;25.834;2023-02-17T04:58:08;101152.50;;;0.17;100.00
9059;BME280;4564;42.034;25.834;2023-02-17T05:00:34;101154.22;;;0.18;100.00
9059;BME280;4564;42.034;25.834;2023-02-17T05:03:01;101147.94;;;0.19;99.74
9059;BME280;4564;42.034;25.834;2023-02-17T05:05:29;101154.78;;;0.23;99.58
9059;BME280;4564;42.034;25.834;2023-02-17T05:07:56;101153.34;;;0.17;98.70
9059;BME280;4564;42.034;25.834;2023-02-17T05:10:22;101163.13;;;0.04;98.99
9059;BME280;4564;42.034;25.834;2023-02-17T05:12:49;101167.34;;;-0.06;99.50
9059;BME280;4564;42.034;25.834;2023-02-17T05:15:16;101167.91;;;-0.01;98.88
9059;BME280;4564;42.034;25.834;2023-02-17T05:17:43;101166.34;;;0.09;98.31
9059;BME280;4564;42.034;25.834;2023-02-17T05:20:10;101172.59;;;0.22;99.29
9059;BME280;4564;42.034;25.834;2023-02-17T05:22:38;101179.25;;;0.29;98.49
9059;BME280;4564;42.034;25.834;2023-02-17T05:25:05;101171.66;;;0.23;98.54
9059;BME280;4564;42.034;25.834;2023-02-17T05:27:32;101173.75;;;0.18;97.89
9059;BME280;4564;42.034;25.834;2023-02-17T05:29:58;101183.25;;;0.22;98.24
9059;BME280;4564;42.034;25.834;2023-02-17T05:32:25;101191.81;;;0.27;97.76
9059;BME280;4564;42.034;25.834;2023-02-17T05:34:52;101185.19;;;0.20;97.76
9059;BME280;4564;42.034;25.834;2023-02-17T05:37:18;101184.94;;;0.11;95.90
9059;BME280;4564;42.034;25.834;2023-02-17T05:39:46;101176.81;;;0.12;94.19
9059;BME280;4564;42.034;25.834;2023-02-17T05:42:13;101180.91;;;0.18;93.76
9059;BME280;4564;42.034;25.834;2023-02-17T05:44:39;101192.91;;;0.25;92.74
9059;BME280;4564;42.034;25.834;2023-02-17T05:47:06;101209.69;;;0.13;91.33
9059;BME280;4564;42.034;25.834;2023-02-17T05:49:33;101208.31;;;-0.07;90.00
9059;BME280;4564;42.034;25.834;2023-02-17T05:51:59;101210.00;;;0.08;91.74
9059;BME280;4564;42.034;25.834;2023-02-17T05:54:26;101203.19;;;0.17;92.79
9059;BME280;4564;42.034;25.834;2023-02-17T05:56:54;101200.84;;;0.39;92.86
9059;BME280;4564;42.034;25.834;2023-02-17T05:59:21;101204.59;;;0.63;93.12
9059;BME280;4564;42.034;25.834;2023-02-17T06:01:47;101211.72;;;0.90;91.34
9059;BME280;4564;42.034;25.834;2023-02-17T06:04:14;101212.63;;;1.15;90.21
9059;BME280;4564;42.034;25.834;2023-02-17T06:06:40;101205.69;;;1.25;88.63
9059;BME280;4564;42.034;25.834;2023-02-17T06:09:07;101211.38;;;1.34;88.96
9059;BME280;4564;42.034;25.834;2023-02-17T06:11:33;101211.69;;;1.54;89.24
9059;BME280;4564;42.034;25.834;2023-02-17T06:14:01;101209.97;;;1.79;89.63
9059;BME280;4564;42.034;25.834;2023-02-17T06:16:28;101214.38;;;2.16;89.72
9059;BME280;4564;42.034;25.834;2023-02-17T06:18:54;101204.88;;;2.72;89.74
9059;BME280;4564;42.034;25.834;2023-02-17T06:21:21;101210.00;;;3.45;88.30
9059;BME280;4564;42.034;25.834;2023-02-17T06:23:47;101210.09;;;4.33;86.42
9059;BME280;4564;42.034;25.834;2023-02-17T06:26:14;101202.84;;;5.19;84.58
9059;BME280;4564;42.034;25.834;2023-02-17T06:28:42;101205.63;;;6.01;82.25
9059;BME280;4564;42.034;25.834;2023-02-17T06:31:10;101199.44;;;6.98;79.67
9059;BME280;4564;42.034;25.834;2023-02-17T06:33:37;101206.63;;;7.65;76.52
9059;BME280;4564;42.034;25.834;2023-02-17T06:36:04;101211.09;;;8.57;77.94
9059;BME280;4564;42.034;25.834;2023-02-17T06:38:30;101220.59;;;8.34;73.73
9059;BME280;4564;42.034;25.834;2023-02-17T06:40:57;101215.28;;;8.05;71.61
9059;BME280;4564;42.034;25.834;2023-02-17T06:43:24;101214.72;;;8.66;72.34
9059;BME280;4564;42.034;25.834;2023-02-17T06:45:50;101214.19;;;9.33;71.29
9059;BME280;4564;42.034;25.834;2023-02-17T06:48:19;101185.00;;;9.71;67.44
9059;BME280;4564;42.034;25.834;2023-02-17T06:50:47;101216.22;;;10.34;67.49
9059;BME280;4564;42.034;25.834;2023-02-17T06:53:14;101208.25;;;10.91;65.51
9059;BME280;4564;42.034;25.834;2023-02-17T06:55:42;101210.81;;;11.57;64.04
9059;BME280;4564;42.034;25.834;2023-02-17T06:58:08;101202.31;;;10.37;65.51
9059;BME280;4564;42.034;25.834;2023-02-17T07:00:35;101207.31;;;9.64;68.92
9059;BME280;4564;42.034;25.834;2023-02-17T07:03:02;101209.91;;;10.00;68.75
9059;BME280;4564;42.034;25.834;2023-02-17T07:05:30;101206.66;;;10.64;66.66
9059;BME280;4564;42.034;25.834;2023-02-17T07:07:56;101210.31;;;11.13;64.55
9059;BME280;4564;42.034;25.834;2023-02-17T07:10:23;101219.69;;;11.43;63.94
9059;BME280;4564;42.034;25.834;2023-02-17T07:12:49;101222.91;;;11.71;61.74
9059;BME280;4564;42.034;25.834;2023-02-17T07:15:16;101217.41;;;12.03;60.80
9059;BME280;4564;42.034;25.834;2023-02-17T07:17:43;101224.25;;;11.91;60.64
9059;BME280;4564;42.034;25.834;2023-02-17T07:20:10;101220.84;;;11.57;62.84
9059;BME280;4564;42.034;25.834;2023-02-17T07:22:38;101219.81;;;11.90;61.89
9059;BME280;4564;42.034;25.834;2023-02-17T07:25:05;101225.25;;;11.98;61.91
9059;BME280;4564;42.034;25.834;2023-02-17T07:27:33;101228.22;;;12.28;60.90
9059;BME280;4564;42.034;25.834;2023-02-17T07:30:00;101215.72;;;11.94;60.95
9059;BME280;4564;42.034;25.834;2023-02-17T07:32:27;101211.34;;;11.53;64.28
9059;BME280;4564;42.034;25.834;2023-02-17T07:34:53;101215.94;;;12.32;62.60
9059;BME280;4564;42.034;25.834;2023-02-17T07:37:20;101213.66;;;12.12;62.04
9059;BME280;4564;42.034;25.834;2023-02-17T07:39:48;101211.13;;;12.42;61.40
9059;BME280;4564;42.034;25.834;2023-02-17T07:42:16;101202.94;;;12.50;61.11
9059;BME280;4564;42.034;25.834;2023-02-17T07:44:43;101200.75;;;12.76;60.07
9059;BME280;4564;42.034;25.834;2023-02-17T07:47:09;101198.75;;;13.24;60.04
9059;BME280;4564;42.034;25.834;2023-02-17T07:49:36;101202.59;;;14.04;57.32
9059;BME280;4564;42.034;25.834;2023-02-17T07:52:03;101208.91;;;13.90;56.28
9059;BME280;4564;42.034;25.834;2023-02-17T07:54:30;101204.41;;;13.22;57.92
9059;BME280;4564;42.034;25.834;2023-02-17T07:56:58;101206.28;;;12.91;60.77
9059;BME280;4564;42.034;25.834;2023-02-17T07:59:24;101208.56;;;12.48;61.23
9059;BME280;4564;42.034;25.834;2023-02-17T08:01:51;101211.72;;;12.29;62.64
9059;BME280;4564;42.034;25.834;2023-02-17T08:04:18;101217.16;;;12.68;61.31
9059;BME280;4564;42.034;25.834;2023-02-17T08:06:45;101208.25;;;12.74;59.67
9059;BME280;4564;42.034;25.834;2023-02-17T08:09:11;101213.34;;;12.46;61.67
9059;BME280;4564;42.034;25.834;2023-02-17T08:11:57;101212.97;;;12.10;61.83
9059;BME280;4564;42.034;25.834;2023-02-17T08:14:41;101206.59;;;11.14;65.23
9059;BME280;4564;42.034;25.834;2023-02-17T08:17:08;101212.81;;;10.90;66.95
9059;BME280;4564;42.034;25.834;2023-02-17T08:19:34;101217.75;;;10.79;67.79
9059;BME280;4564;42.034;25.834;2023-02-17T08:22:01;101204.72;;;10.40;68.84
9059;BME280;4564;42.034;25.834;2023-02-17T08:24:28;101208.56;;;10.30;70.02
9059;BME280;4564;42.034;25.834;2023-02-17T08:26:54;101205.66;;;10.23;70.78
9059;BME280;4564;42.034;25.834;2023-02-17T08:29:22;101211.72;;;9.91;71.96
9059;BME280;4564;42.034;25.834;2023-02-17T08:31:50;101204.19;;;10.03;72.49
9059;BME280;4564;42.034;25.834;2023-02-17T08:34:17;101206.06;;;10.10;72.08
9059;BME280;4564;42.034;25.834;2023-02-17T08:36:44;101201.25;;;10.22;72.77
9059;BME280;4564;42.034;25.834;2023-02-17T08:39:12;101193.16;;;10.30;72.12
9059;BME280;4564;42.034;25.834;2023-02-17T08:41:39;101204.28;;;10.61;71.25
9059;BME280;4564;42.034;25.834;2023-02-17T08:44:07;101209.94;;;10.92;71.25
9059;BME280;4564;42.034;25.834;2023-02-17T08:46:35;101209.78;;;10.93;69.18
9059;BME280;4564;42.034;25.834;2023-02-17T08:49:02;101201.97;;;11.07;69.95
9059;BME280;4564;42.034;25.834;2023-02-17T08:51:29;101198.78;;;11.11;69.29
9059;BME280;4564;42.034;25.834;2023-02-17T08:53:57;101208.41;;;10.98;70.69
9059;BME280;4564;42.034;25.834;2023-02-17T08:56:24;101199.94;;;10.92;69.89
9059;BME280;4564;42.034;25.834;2023-02-17T08:58:52;101197.41;;;10.99;70.64
9059;BME280;4564;42.034;25.834;2023-02-17T09:01:19;101197.75;;;11.20;70.87
9059;BME280;4564;42.034;25.834;2023-02-17T09:03:47;101197.41;;;11.23;69.29
9059;BME280;4564;42.034;25.834;2023-02-17T09:06:14;101199.09;;;11.08;70.28
9059;BME280;4564;42.034;25.834;2023-02-17T09:08:41;101199.75;;;10.86;71.51
9059;BME280;4564;42.034;25.834;2023-02-17T09:11:08;101192.47;;;11.03;71.45
9059;BME280;4564;42.034;25.834;2023-02-17T09:13:35;101190.59;;;11.03;70.93
9059;BME280;4564;42.034;25.834;2023-02-17T09:16:02;101193.31;;;10.79;71.88
9059;BME280;4564;42.034;25.834;2023-02-17T09:18:28;101188.56;;;10.89;71.96
9059;BME280;4564;42.034;25.834;2023-02-17T09:20:56;101184.84;;;10.98;72.01
9059;BME280;4564;42.034;25.834;2023-02-17T09:23:24;101186.53;;;11.07;71.30
9059;BME280;4564;42.034;25.834;2023-02-17T09:25:59;101189.44;;;11.22;70.83
9059;BME280;4564;42.034;25.834;2023-02-17T09:28:25;101181.78;;;11.25;71.44
9059;BME280;4564;42.034;25.834;2023-02-17T09:30:52;101181.44;;;11.04;71.41
9059;BME280;4564;42.034;25.834;2023-02-17T09:33:18;101183.34;;;11.12;71.32
9059;BME280;4564;42.034;25.834;2023-02-17T09:35:45;101184.50;;;11.25;70.60
9059;BME280;4564;42.034;25.834;2023-02-17T09:38:14;101181.47;;;11.20;71.38
9059;BME280;4564;42.034;25.834;2023-02-17T09:40:41;101170.09;;;11.33;71.40
9059;BME280;4564;42.034;25.834;2023-02-17T09:43:12;101170.59;;;11.20;71.13
9059;BME280;4564;42.034;25.834;2023-02-17T09:45:39;101163.13;;;11.39;70.98
9059;BME280;4564;42.034;25.834;2023-02-17T09:48:09;101164.13;;;11.29;72.08
9059;BME280;4564;42.034;25.834;2023-02-17T09:50:38;101160.38;;;11.55;70.99
9059;BME280;4564;42.034;25.834;2023-02-17T09:53:10;101152.34;;;11.61;70.76
9059;BME280;4564;42.034;25.834;2023-02-17T09:55:43;101151.38;;;11.54;71.65
9059;BME280;4564;42.034;25.834;2023-02-17T09:58:11;101147.13;;;11.76;69.91
9059;BME280;4564;42.034;25.834;2023-02-17T10:00:40;101144.69;;;11.89;70.57
9059;BME280;4564;42.034;25.834;2023-02-17T10:03:10;101146.69;;;12.03;70.36
9059;BME280;4564;42.034;25.834;2023-02-17T10:05:41;101135.38;;;12.23;68.69
9059;BME280;4564;42.034;25.834;2023-02-17T10:08:11;101137.69;;;12.34;69.17
9059;BME280;4564;42.034;25.834;2023-02-17T10:10:43;101129.84;;;12.39;69.34
9059;BME280;4564;42.034;25.834;2023-02-17T10:13:12;101116.84;;;12.49;67.61
9059;BME280;4564;42.034;25.834;2023-02-17T10:15:43;101109.59;;;12.64;58.39
9059;BME280;4564;42.034;25.834;2023-02-17T10:18:13;101114.88;;;12.88;50.70
9059;BME280;4564;42.034;25.834;2023-02-17T10:20:43;101111.84;;;13.06;49.74
9059;BME280;4564;42.034;25.834;2023-02-17T10:23:12;101109.31;;;13.27;48.93
9059;BME280;4564;42.034;25.834;2023-02-17T10:25:47;101104.63;;;13.51;48.45
9059;BME280;4564;42.034;25.834;2023-02-17T10:28:17;101102.38;;;13.69;46.07
9059;BME280;4564;42.034;25.834;2023-02-17T10:30:48;101101.34;;;13.84;47.67
9059;BME280;4564;42.034;25.834;2023-02-17T10:33:21;101088.94;;;13.97;44.85
9059;BME280;4564;42.034;25.834;2023-02-17T10:35:49;101094.00;;;14.00;44.65
9059;BME280;4564;42.034;25.834;2023-02-17T10:38:17;101092.22;;;14.07;44.03
9059;BME280;4564;42.034;25.834;2023-02-17T10:40:46;101093.97;;;14.14;44.27
9059;BME280;4564;42.034;25.834;2023-02-17T10:43:18;101087.06;;;14.33;44.04
9059;BME280;4564;42.034;25.834;2023-02-17T10:45:47;101085.09;;;14.42;42.97
9059;BME280;4564;42.034;25.834;2023-02-17T10:48:16;101075.84;;;14.57;43.26
9059;BME280;4564;42.034;25.834;2023-02-17T10:50:44;101079.53;;;14.71;42.86
9059;BME280;4564;42.034;25.834;2023-02-17T10:53:12;101067.69;;;14.85;44.07
9059;BME280;4564;42.034;25.834;2023-02-17T10:55:40;101063.97;;;14.93;43.36
9059;BME280;4564;42.034;25.834;2023-02-17T10:58:12;101066.00;;;14.84;41.35
9059;BME280;4564;42.034;25.834;2023-02-17T11:00:42;101062.16;;;14.79;41.47
9059;BME280;4564;42.034;25.834;2023-02-17T11:03:17;101054.31;;;14.97;40.67
9059;BME280;4564;42.034;25.834;2023-02-17T11:05:50;101049.06;;;15.23;38.83
9059;BME280;4564;42.034;25.834;2023-02-17T11:08:22;101043.22;;;15.26;38.48
9059;BME280;4564;42.034;25.834;2023-02-17T11:10:57;101039.69;;;15.32;38.67
9059;BME280;4564;42.034;25.834;2023-02-17T11:13:29;101051.25;;;15.34;38.00
9059;BME280;4564;42.034;25.834;2023-02-17T11:15:57;101043.03;;;15.34;37.81
9059;BME280;4564;42.034;25.834;2023-02-17T11:18:24;101034.00;;;15.34;37.40
9059;BME280;4564;42.034;25.834;2023-02-17T11:20:58;101034.84;;;15.34;36.88
9059;BME280;4564;42.034;25.834;2023-02-17T11:23:25;101026.16;;;15.24;36.57
9059;BME280;4564;42.034;25.834;2023-02-17T11:26:01;101025.91;;;15.19;37.16
9059;BME280;4564;42.034;25.834;2023-02-17T11:28:29;101031.06;;;15.07;38.26
9059;BME280;4564;42.034;25.834;2023-02-17T11:30:57;101021.41;;;15.05;37.02
9059;BME280;4564;42.034;25.834;2023-02-17T11:33:28;101017.03;;;15.17;37.28
9059;BME280;4564;42.034;25.834;2023-02-17T11:35:55;101014.91;;;15.12;36.97
9059;BME280;4564;42.034;25.834;2023-02-17T11:38:24;101019.78;;;15.17;36.92
9059;BME280;4564;42.034;25.834;2023-02-17T11:40:51;101020.00;;;15.16;36.62
9059;BME280;4564;42.034;25.834;2023-02-17T11:43:18;101007.81;;;15.18;36.36
9059;BME280;4564;42.034;25.834;2023-02-17T11:45:47;101007.81;;;15.18;36.27
9059;BME280;4564;42.034;25.834;2023-02-17T11:48:28;101006.09;;;15.17;36.92
9059;BME280;4564;42.034;25.834;2023-02-17T11:50:59;101005.72;;;15.20;36.67
9059;BME280;4564;42.034;25.834;2023-02-17T11:53:30;100999.16;;;15.15;36.40
9059;BME280;4564;42.034;25.834;2023-02-17T11:56:04;100997.09;;;15.17;36.90
9059;BME280;4564;42.034;25.834;2023-02-17T11:58:40;100997.28;;;15.15;36.58
9059;BME280;4564;42.034;25.834;2023-02-17T12:01:14;100987.13;;;15.09;36.70
9059;BME280;4564;42.034;25.834;2023-02-17T12:06:30;100979.28;;;15.27;35.87
9059;BME280;4564;42.034;25.834;2023-02-17T12:09:03;100971.69;;;15.29;36.49
9059;BME280;4564;42.034;25.834;2023-02-17T12:11:37;100968.41;;;15.40;35.72
9059;BME280;4564;42.034;25.834;2023-02-17T12:14:15;100961.69;;;15.49;35.96
9059;BME280;4564;42.034;25.834;2023-02-17T12:16:48;100962.78;;;15.48;36.11
9059;BME280;4564;42.034;25.834;2023-02-17T12:19:23;100957.56;;;15.53;35.62
9059;BME280;4564;42.034;25.834;2023-02-17T12:21:54;100951.28;;;15.60;35.52
9059;BME280;4564;42.034;25.834;2023-02-17T12:24:31;100943.25;;;15.51;35.72
9059;BME280;4564;42.034;25.834;2023-02-17T12:27:03;100941.94;;;15.47;35.96
9059;BME280;4564;42.034;25.834;2023-02-17T12:29:35;100932.47;;;15.50;34.71
9059;BME280;4564;42.034;25.834;2023-02-17T12:32:13;100939.88;;;15.56;35.15
9059;BME280;4564;42.034;25.834;2023-02-17T12:34:45;100928.75;;;15.58;34.99
9059;BME280;4564;42.034;25.834;2023-02-17T12:37:15;100940.13;;;15.61;34.21
9059;BME280;4564;42.034;25.834;2023-02-17T12:39:45;100929.41;;;15.60;34.54
9059;BME280;4564;42.034;25.834;2023-02-17T12:42:15;100923.28;;;15.58;34.65
9059;BME280;4564;42.034;25.834;2023-02-17T12:44:45;100922.47;;;15.64;33.95
9059;BME280;4564;42.034;25.834;2023-02-17T12:47:15;100915.75;;;15.73;34.06
9059;BME280;4564;42.034;25.834;2023-02-17T12:49:45;100916.78;;;15.72;33.86
9059;BME280;4564;42.034;25.834;2023-02-17T12:52:15;100914.91;;;15.72;33.94
9059;BME280;4564;42.034;25.834;2023-02-17T12:54:44;100913.81;;;15.67;34.26
9059;BME280;4564;42.034;25.834;2023-02-17T12:57:13;100911.53;;;15.64;34.51
9059;BME280;4564;42.034;25.834;2023-02-17T12:59:43;100916.53;;;15.53;34.97
9059;BME280;4564;42.034;25.834;2023-02-17T13:02:10;100911.69;;;15.56;33.69
9059;BME280;4564;42.034;25.834;2023-02-17T13:04:39;100916.47;;;15.47;34.70
9059;BME280;4564;42.034;25.834;2023-02-17T13:07:09;100909.38;;;15.52;34.58
9059;BME280;4564;42.034;25.834;2023-02-17T13:09:41;100905.19;;;15.63;34.16
9059;BME280;4564;42.034;25.834;2023-02-17T13:12:15;100904.78;;;15.60;32.76
9059;BME280;4564;42.034;25.834;2023-02-17T13:14:43;100899.28;;;15.53;33.92
9059;BME280;4564;42.034;25.834;2023-02-17T13:17:23;100894.88;;;15.59;33.66
9059;BME280;4564;42.034;25.834;2023-02-17T13:20:01;100898.22;;;15.61;33.70